sensor_id;sensor_type;location;lat;lon;timestamp;temperature;humidity
14775;DHT22;7479;47.042;15.160;2023-02-28T08:52:04;1.80;98.20
14775;DHT22;7479;47.042;15.160;2023-02-28T09:03:17;2.00;98.00
14775;DHT22;7479;47.042;15.160;2023-02-28T09:13:13;2.20;97.60
14775;DHT22;7479;47.042;15.160;2023-02-28T09:18:07;2.10;97.40
14775;DHT22;7479;47.042;15.160;2023-02-28T09:23:01;2.10;97.60
14775;DHT22;7479;47.042;15.160;2023-02-28T09:27:55;2.30;97.60
14775;DHT22;7479;47.042;15.160;2023-02-28T09:32:50;2.50;96.90
14775;DHT22;7479;47.042;15.160;2023-02-28T09:37:44;2.60;96.40
14775;DHT22;7479;47.042;15.160;2023-02-28T09:42:39;2.70;96.00
14775;DHT22;7479;47.042;15.160;2023-02-28T09:47:35;2.90;95.70
14775;DHT22;7479;47.042;15.160;2023-02-28T09:52:32;3.00;95.80
14775;DHT22;7479;47.042;15.160;2023-02-28T09:57:32;3.10;95.80
14775;DHT22;7479;47.042;15.160;2023-02-28T10:03:00;3.20;95.10
14775;DHT22;7479;47.042;15.160;2023-02-28T10:08:10;3.30;94.40
14775;DHT22;7479;47.042;15.160;2023-02-28T10:13:11;3.50;93.70
14775;DHT22;7479;47.042;15.160;2023-02-28T10:18:12;3.70;92.60
14775;DHT22;7479;47.042;15.160;2023-02-28T10:23:13;3.70;92.50
14775;DHT22;7479;47.042;15.160;2023-02-28T10:28:11;3.80;92.10
14775;DHT22;7479;47.042;15.160;2023-02-28T10:33:05;4.00;91.40
14775;DHT22;7479;47.042;15.160;2023-02-28T10:38:00;4.00;91.00
14775;DHT22;7479;47.042;15.160;2023-02-28T10:42:57;3.80;91.10
14775;DHT22;7479;47.042;15.160;2023-02-28T10:47:54;3.80;90.60
14775;DHT22;7479;47.042;15.160;2023-02-28T10:52:48;3.90;91.40
14775;DHT22;7479;47.042;15.160;2023-02-28T10:57:43;4.10;91.90
14775;DHT22;7479;47.042;15.160;2023-02-28T11:02:38;4.40;90.80
14775;DHT22;7479;47.042;15.160;2023-02-28T11:07:34;4.50;88.90
14775;DHT22;7479;47.042;15.160;2023-02-28T11:12:44;4.50;90.50
14775;DHT22;7479;47.042;15.160;2023-02-28T11:17:53;4.60;90.50
14775;DHT22;7479;47.042;15.160;2023-02-28T11:22:48;4.70;89.30
14775;DHT22;7479;47.042;15.160;2023-02-28T11:27:48;5.00;90.30
14775;DHT22;7479;47.042;15.160;2023-02-28T11:32:49;5.20;87.80
14775;DHT22;7479;47.042;15.160;2023-02-28T11:37:43;5.30;89.20
14775;DHT22;7479;47.042;15.160;2023-02-28T11:42:55;5.50;86.40
14775;DHT22;7479;47.042;15.160;2023-02-28T11:47:59;5.80;86.00
14775;DHT22;7479;47.042;15.160;2023-02-28T11:52:59;5.90;84.50
14775;DHT22;7479;47.042;15.160;2023-02-28T12:03:33;6.00;84.80
14775;DHT22;7479;47.042;15.160;2023-02-28T12:08:49;5.80;85.50
14775;DHT22;7479;47.042;15.160;2023-02-28T12:13:51;5.80;85.50
14775;DHT22;7479;47.042;15.160;2023-02-28T12:19:04;5.90;84.50
14775;DHT22;7479;47.042;15.160;2023-02-28T12:24:11;5.90;84.50
14775;DHT22;7479;47.042;15.160;2023-02-28T12:29:14;6.10;84.10
14775;DHT22;7479;47.042;15.160;2023-02-28T12:34:16;6.20;84.80
14775;DHT22;7479;47.042;15.160;2023-02-28T12:39:16;6.40;85.00
14775;DHT22;7479;47.042;15.160;2023-02-28T12:44:17;6.30;84.30
14775;DHT22;7479;47.042;15.160;2023-02-28T12:49:17;6.10;84.10
14775;DHT22;7479;47.042;15.160;2023-02-28T12:54:18;6.00;84.70
14775;DHT22;7479;47.042;15.160;2023-02-28T12:59:18;5.90;85.60
14775;DHT22;7479;47.042;15.160;2023-02-28T13:04:46;6.00;85.50
14775;DHT22;7479;47.042;15.160;2023-02-28T13:09:52;5.90;85.20
14775;DHT22;7479;47.042;15.160;2023-02-28T13:14:45;5.80;86.00
14775;DHT22;7479;47.042;15.160;2023-02-28T13:19:42;5.90;85.40
14775;DHT22;7479;47.042;15.160;2023-02-28T13:24:46;6.00;85.20
14775;DHT22;7479;47.042;15.160;2023-02-28T13:29:41;6.10;86.80
14775;DHT22;7479;47.042;15.160;2023-02-28T13:34:37;6.10;87.50
14775;DHT22;7479;47.042;15.160;2023-02-28T13:39:49;6.00;88.20
14775;DHT22;7479;47.042;15.160;2023-02-28T13:50:24;5.90;88.10
14775;DHT22;7479;47.042;15.160;2023-02-28T13:55:27;5.80;89.60
14775;DHT22;7479;47.042;15.160;2023-02-28T14:00:31;5.90;89.60
14775;DHT22;7479;47.042;15.160;2023-02-28T14:05:32;6.00;88.70
14775;DHT22;7479;47.042;15.160;2023-02-28T14:10:30;6.00;88.10
14775;DHT22;7479;47.042;15.160;2023-02-28T14:21:13;5.80;88.00
14775;DHT22;7479;47.042;15.160;2023-02-28T14:26:19;5.80;88.90
14775;DHT22;7479;47.042;15.160;2023-02-28T14:31:24;9.00;83.40
14775;DHT22;7479;47.042;15.160;2023-02-28T14:36:24;11.10;73.20
14775;DHT22;7479;47.042;15.160;2023-02-28T14:41:24;12.50;68.80
14775;DHT22;7479;47.042;15.160;2023-02-28T14:46:25;13.60;63.20
14775;DHT22;7479;47.042;15.160;2023-02-28T14:51:22;14.10;59.50
14775;DHT22;7479;47.042;15.160;2023-02-28T14:56:26;14.10;58.10
14775;DHT22;7479;47.042;15.160;2023-02-28T15:01:23;13.90;57.70
14775;DHT22;7479;47.042;15.160;2023-02-28T15:06:18;12.70;58.60
14775;DHT22;7479;47.042;15.160;2023-02-28T15:11:15;11.20;61.60
14775;DHT22;7479;47.042;15.160;2023-02-28T15:16:15;12.30;60.10
14775;DHT22;7479;47.042;15.160;2023-02-28T15:21:14;10.20;60.90
14775;DHT22;7479;47.042;15.160;2023-02-28T15:26:13;8.60;66.00
14775;DHT22;7479;47.042;15.160;2023-02-28T15:31:26;7.00;71.40
14775;DHT22;7479;47.042;15.160;2023-02-28T15:36:37;6.20;75.50
14775;DHT22;7479;47.042;15.160;2023-02-28T15:41:35;5.60;77.90
14775;DHT22;7479;47.042;15.160;2023-02-28T15:46:32;5.30;80.50
14775;DHT22;7479;47.042;15.160;2023-02-28T15:51:30;5.00;82.70
14775;DHT22;7479;47.042;15.160;2023-02-28T15:56:28;4.80;84.70
14775;DHT22;7479;47.042;15.160;2023-02-28T16:01:25;4.60;87.60
14775;DHT22;7479;47.042;15.160;2023-02-28T16:06:43;4.50;88.10
14775;DHT22;7479;47.042;15.160;2023-02-28T16:11:43;4.20;90.10
14775;DHT22;7479;47.042;15.160;2023-02-28T16:16:43;4.10;91.00
14775;DHT22;7479;47.042;15.160;2023-02-28T16:21:37;4.10;91.60
14775;DHT22;7479;47.042;15.160;2023-02-28T16:26:32;4.00;92.00
14775;DHT22;7479;47.042;15.160;2023-02-28T16:31:29;4.00;92.20
14775;DHT22;7479;47.042;15.160;2023-02-28T16:36:24;3.90;92.40
14775;DHT22;7479;47.042;15.160;2023-02-28T16:41:20;3.80;92.70
14775;DHT22;7479;47.042;15.160;2023-02-28T16:46:17;3.80;93.00
14775;DHT22;7479;47.042;15.160;2023-02-28T16:51:15;3.70;93.20
14775;DHT22;7479;47.042;15.160;2023-02-28T16:56:16;3.70;93.30
14775;DHT22;7479;47.042;15.160;2023-02-28T17:01:09;3.60;93.60
14775;DHT22;7479;47.042;15.160;2023-02-28T17:06:16;3.40;93.80
14775;DHT22;7479;47.042;15.160;2023-02-28T17:11:11;3.30;94.60
14775;DHT22;7479;47.042;15.160;2023-02-28T17:16:05;3.20;95.00
